Time;durP1;ratioP1;P1;durP2;ratioP2;P2;SDS_P1;SDS_P2;PMS_P1;PMS_P2;Temp;Humidity;BMP_temperature;BMP_pressure;BME280_temperature;BME280_humidity;BME280_pressure;Samples;Min_cycle;Max_cycle;Signal;HPM_P1;HPM_P2
2023/05/18 00:01:39;;;;;;;;;;;;;;;4.57;100.00;96459.44;5081414;28;19970;-74
2023/05/18 00:04:06;;;;;;;;;;;;;;;4.39;100.00;96453.09;5075765;28;19924;-74
2023/05/18 00:06:33;;;;;;;;;;;;;;;4.35;100.00;96448.94;5072519;28;20011;-74
2023/05/18 00:08:59;;;;;;;;;;;;;;;4.34;100.00;96448.09;5084996;28;19924;-74
2023/05/18 00:11:27;;;;;;;;;;;;;;;4.44;100.00;96447.81;5083152;28;19964;-73
2023/05/18 00:13:53;;;;;;;;;;;;;;;4.43;100.00;96451.28;5080102;28;19932;-73
2023/05/18 00:16:19;;;;;;;;;;;;;;;4.31;100.00;96442.19;5079900;28;19977;-74
2023/05/18 00:18:46;;;;;;;;;;;;;;;4.13;100.00;96435.84;5085128;28;19931;-74
2023/05/18 00:21:15;;;;;;;;;;;;;;;3.85;100.00;96433.16;5082421;28;19924;-73
2023/05/18 00:23:44;;;;;;;;;;;;;;;3.95;100.00;96433.75;5087887;28;20348;-73
2023/05/18 00:26:10;;;;;;;;;;;;;;;3.60;100.00;96428.66;5080904;28;19959;-73
2023/05/18 00:28:38;;;;;;;;;;;;;;;3.54;100.00;96427.97;5087649;28;19924;-74
2023/05/18 00:31:05;;;;;;;;;;;;;;;3.74;100.00;96425.72;5079804;28;19933;-74
2023/05/18 00:33:31;;;;;;;;;;;;;;;3.99;100.00;96417.41;5079723;28;20034;-73
2023/05/18 00:35:58;;;;;;;;;;;;;;;3.93;100.00;96421.00;5072671;28;19928;-74
2023/05/18 00:38:24;;;;;;;;;;;;;;;3.92;100.00;96418.47;5087262;28;19974;-73
2023/05/18 00:40:50;;;;;;;;;;;;;;;3.88;100.00;96426.22;5081244;28;20462;-74
2023/05/18 00:43:16;;;;;;;;;;;;;;;3.82;100.00;96420.41;5084593;28;19978;-73
2023/05/18 00:45:44;;;;;;;;;;;;;;;3.81;100.00;96417.00;5077641;28;19928;-74
2023/05/18 00:48:10;;;;;;;;;;;;;;;3.80;100.00;96412.78;5085196;28;19924;-73
2023/05/18 00:50:37;;;;;;;;;;;;;;;3.84;100.00;96413.53;5082997;28;19951;-74
2023/05/18 00:53:03;;;;;;;;;;;;;;;3.92;100.00;96405.66;5088370;28;19928;-74
2023/05/18 00:55:29;;;;;;;;;;;;;;;3.93;100.00;96408.19;5076973;28;19950;-74
2023/05/18 00:57:56;;;;;;;;;;;;;;;3.63;100.00;96404.66;5077877;28;19931;-73
2023/05/18 01:00:22;;;;;;;;;;;;;;;3.41;100.00;96401.81;5083263;28;20324;-74
2023/05/18 01:02:51;;;;;;;;;;;;;;;3.54;100.00;96402.34;5081664;28;19982;-73
2023/05/18 01:05:18;;;;;;;;;;;;;;;3.76;100.00;96397.53;5071902;28;19970;-74
2023/05/18 01:07:45;;;;;;;;;;;;;;;3.87;100.00;96398.09;5086192;28;20022;-74
2023/05/18 01:10:12;;;;;;;;;;;;;;;3.88;100.00;96397.19;5084993;28;19928;-74
2023/05/18 01:12:41;;;;;;;;;;;;;;;3.90;100.00;96400.56;5078627;28;19932;-74
2023/05/18 01:15:08;;;;;;;;;;;;;;;3.92;100.00;96403.91;5082997;28;19935;-75
2023/05/18 01:17:38;;;;;;;;;;;;;;;4.03;100.00;96404.47;5083250;28;20011;-74
2023/05/18 01:20:17;;;;;;;;;;;;;;;4.06;100.00;96406.13;5085600;28;19936;-74
2023/05/18 01:22:49;;;;;;;;;;;;;;;3.99;100.00;96400.31;5077829;28;19935;-74
2023/05/18 01:25:18;;;;;;;;;;;;;;;3.82;100.00;96395.66;5082573;28;20038;-74
2023/05/18 01:27:46;;;;;;;;;;;;;;;3.82;100.00;96402.47;5088522;28;19928;-74
2023/05/18 01:30:13;;;;;;;;;;;;;;;3.94;100.00;96394.47;5079724;28;19924;-74
2023/05/18 01:32:41;;;;;;;;;;;;;;;3.96;100.00;96394.44;5076971;28;19931;-73
2023/05/18 01:35:07;;;;;;;;;;;;;;;4.00;100.00;96391.72;5080701;28;19954;-74
2023/05/18 01:37:34;;;;;;;;;;;;;;;4.07;100.00;96395.81;5086869;28;19932;-74
2023/05/18 01:40:00;;;;;;;;;;;;;;;4.02;100.00;96399.41;5085465;28;19936;-74
2023/05/18 01:42:30;;;;;;;;;;;;;;;3.93;100.00;96399.63;5082566;28;19931;-74
2023/05/18 01:45:02;;;;;;;;;;;;;;;3.85;100.00;96398.09;5080663;28;19928;-74
2023/05/18 01:47:30;;;;;;;;;;;;;;;3.73;100.00;96398.44;5075035;28;19963;-74
2023/05/18 01:49:59;;;;;;;;;;;;;;;3.75;100.00;96395.84;5083503;28;20011;-74
2023/05/18 01:52:29;;;;;;;;;;;;;;;3.77;100.00;96396.63;5081057;28;20309;-73
2023/05/18 01:54:57;;;;;;;;;;;;;;;3.77;100.00;96401.75;5081538;28;19935;-74
2023/05/18 01:57:25;;;;;;;;;;;;;;;3.75;100.00;96399.25;5082452;28;20355;-74
2023/05/18 01:59:53;;;;;;;;;;;;;;;3.69;100.00;96396.84;5083760;28;20384;-74
2023/05/18 02:02:21;;;;;;;;;;;;;;;3.75;100.00;96400.97;5085930;28;19924;-73
2023/05/18 02:04:48;;;;;;;;;;;;;;;3.72;100.00;96398.50;5088181;28;19940;-76
2023/05/18 02:07:14;;;;;;;;;;;;;;;3.66;100.00;96396.06;5081171;28;19925;-73
2023/05/18 02:09:41;;;;;;;;;;;;;;;3.69;100.00;96403.69;5083564;28;19925;-74
2023/05/18 02:12:08;;;;;;;;;;;;;;;3.57;100.00;96395.44;5079630;28;19978;-74
2023/05/18 02:14:34;;;;;;;;;;;;;;;3.60;100.00;96390.25;5085538;28;19942;-73
2023/05/18 02:17:00;;;;;;;;;;;;;;;3.62;100.00;96382.50;5083047;28;19924;-74
2023/05/18 02:19:29;;;;;;;;;;;;;;;3.63;100.00;96384.19;5084612;28;19932;-74
2023/05/18 02:21:56;;;;;;;;;;;;;;;3.66;100.00;96386.66;5087103;28;20018;-74
2023/05/18 02:24:23;;;;;;;;;;;;;;;3.52;100.00;96388.72;5082171;28;20024;-74
2023/05/18 02:26:50;;;;;;;;;;;;;;;3.61;100.00;96379.09;5079835;28;20352;-74
2023/05/18 02:29:16;;;;;;;;;;;;;;;3.70;100.00;96383.16;5087179;28;20585;-73
2023/05/18 02:31:42;;;;;;;;;;;;;;;3.68;100.00;96381.53;5083609;28;19932;-73
2023/05/18 02:34:09;;;;;;;;;;;;;;;3.70;100.00;96382.31;5088815;28;19928;-73
2023/05/18 02:36:38;;;;;;;;;;;;;;;3.73;100.00;96380.50;5085133;28;19940;-73
2023/05/18 02:39:05;;;;;;;;;;;;;;;3.72;100.00;96385.69;5078336;28;20306;-74
2023/05/18 02:41:31;;;;;;;;;;;;;;;3.63;100.00;96381.63;5084403;28;19972;-73
2023/05/18 02:43:58;;;;;;;;;;;;;;;3.64;100.00;96380.75;5086011;28;20279;-74
2023/05/18 02:46:24;;;;;;;;;;;;;;;3.67;100.00;96379.81;5080320;28;19933;-73
2023/05/18 02:48:50;;;;;;;;;;;;;;;3.63;100.00;96368.81;5087936;28;20353;-74
2023/05/18 02:51:17;;;;;;;;;;;;;;;3.60;100.00;96380.00;5091273;28;19928;-73
2023/05/18 02:53:44;;;;;;;;;;;;;;;3.58;100.00;96368.09;5084113;28;20612;-73
2023/05/18 02:56:11;;;;;;;;;;;;;;;3.59;100.00;96375.72;5079143;28;19944;-74
2023/05/18 02:58:37;;;;;;;;;;;;;;;3.60;100.00;96377.44;5078789;28;19924;-73
2023/05/18 03:01:06;;;;;;;;;;;;;;;3.44;100.00;96375.28;5085584;28;19932;-73
2023/05/18 03:03:33;;;;;;;;;;;;;;;3.53;100.00;96375.06;5090846;28;19963;-73
2023/05/18 03:06:01;;;;;;;;;;;;;;;3.54;100.00;96369.91;5075134;28;19932;-73
2023/05/18 03:08:27;;;;;;;;;;;;;;;3.60;100.00;96371.47;5086728;28;20042;-73
2023/05/18 03:10:55;;;;;;;;;;;;;;;3.59;100.00;96374.91;5078945;28;19936;-74
2023/05/18 03:13:21;;;;;;;;;;;;;;;3.63;100.00;96364.56;5089830;28;20378;-73
2023/05/18 03:15:49;;;;;;;;;;;;;;;3.51;100.00;96374.25;5081419;28;19932;-74
2023/05/18 03:18:16;;;;;;;;;;;;;;;3.15;100.00;96371.72;5086754;28;19932;-74
2023/05/18 03:20:42;;;;;;;;;;;;;;;3.27;100.00;96371.44;5083396;28;19924;-73
2023/05/18 03:23:08;;;;;;;;;;;;;;;3.38;100.00;96368.63;5090108;28;19935;-73
2023/05/18 03:25:36;;;;;;;;;;;;;;;3.39;100.00;96371.13;5086132;28;20305;-73
2023/05/18 03:28:04;;;;;;;;;;;;;;;3.38;100.00;96373.75;5082531;28;20014;-73
2023/05/18 03:30:31;;;;;;;;;;;;;;;3.37;100.00;96366.91;5079196;28;20441;-74
2023/05/18 03:32:57;;;;;;;;;;;;;;;3.39;100.00;96363.44;5085264;28;20279;-74
2023/05/18 03:35:24;;;;;;;;;;;;;;;3.42;100.00;96369.38;5084540;28;20391;-73
2023/05/18 03:37:50;;;;;;;;;;;;;;;3.42;100.00;96365.09;5086473;28;19931;-74
2023/05/18 03:40:17;;;;;;;;;;;;;;;3.43;100.00;96374.44;5080916;28;19935;-74
2023/05/18 03:42:43;;;;;;;;;;;;;;;3.23;100.00;96374.13;5085048;28;19928;-74
2023/05/18 03:45:11;;;;;;;;;;;;;;;3.24;100.00;96370.66;5071352;28;20382;-73
2023/05/18 03:47:38;;;;;;;;;;;;;;;3.24;100.00;96375.78;5083616;28;19924;-73
2023/05/18 03:50:05;;;;;;;;;;;;;;;3.25;100.00;96380.84;5084603;28;19924;-74
2023/05/18 03:52:32;;;;;;;;;;;;;;;3.04;100.00;96378.81;5084608;28;19928;-74
2023/05/18 03:54:59;;;;;;;;;;;;;;;3.27;100.00;96378.28;5077501;28;20386;-74
2023/05/18 03:57:25;;;;;;;;;;;;;;;3.30;100.00;96376.50;5081983;28;19928;-74
2023/05/18 03:59:52;;;;;;;;;;;;;;;3.34;100.00;96372.13;5084416;28;20392;-73
2023/05/18 04:02:19;;;;;;;;;;;;;;;3.31;100.00;96385.00;5078795;28;19939;-74
2023/05/18 04:04:46;;;;;;;;;;;;;;;3.21;100.00;96380.97;5083177;28;19947;-73
2023/05/18 04:07:12;;;;;;;;;;;;;;;3.13;100.00;96382.00;5082737;28;19928;-73
2023/05/18 04:09:39;;;;;;;;;;;;;;;3.26;100.00;96390.22;5085010;28;19928;-74
2023/05/18 04:12:05;;;;;;;;;;;;;;;2.98;100.00;96382.38;5081643;28;19970;-74
2023/05/18 04:14:32;;;;;;;;;;;;;;;2.85;100.00;96386.06;5077930;28;19924;-73
2023/05/18 04:17:03;;;;;;;;;;;;;;;2.62;100.00;96391.69;5080735;28;19925;-74
2023/05/18 04:19:31;;;;;;;;;;;;;;;2.64;100.00;96379.72;5080639;28;20404;-73
2023/05/18 04:21:57;;;;;;;;;;;;;;;2.71;100.00;96391.50;5081544;28;19974;-74
2023/05/18 04:24:25;;;;;;;;;;;;;;;2.88;100.00;96386.84;5082171;28;19954;-73
2023/05/18 04:26:51;;;;;;;;;;;;;;;3.02;100.00;96393.38;5080211;28;19975;-73
2023/05/18 04:29:18;;;;;;;;;;;;;;;3.20;100.00;96402.34;5082201;28;19928;-74
2023/05/18 04:31:47;;;;;;;;;;;;;;;3.09;100.00;96400.88;5080142;28;19924;-74
2023/05/18 04:34:16;;;;;;;;;;;;;;;3.22;100.00;96403.97;5080265;28;19929;-73
2023/05/18 04:36:45;;;;;;;;;;;;;;;3.27;100.00;96407.28;5082306;28;20390;-73
2023/05/18 04:39:11;;;;;;;;;;;;;;;3.43;100.00;96412.88;5082345;28;20029;-74
2023/05/18 04:41:40;;;;;;;;;;;;;;;3.54;100.00;96407.47;5087246;28;19929;-74
2023/05/18 04:44:08;;;;;;;;;;;;;;;3.64;100.00;96406.38;5072737;28;19929;-73
2023/05/18 04:46:38;;;;;;;;;;;;;;;3.87;100.00;96414.31;5065394;28;19925;-74
2023/05/18 04:49:04;;;;;;;;;;;;;;;4.00;100.00;96414.81;5082992;28;19924;-74
2023/05/18 04:51:33;;;;;;;;;;;;;;;4.20;100.00;96416.84;5077081;28;19924;-74
2023/05/18 04:54:01;;;;;;;;;;;;;;;4.38;100.00;96419.81;5080536;28;19924;-74
2023/05/18 04:56:28;;;;;;;;;;;;;;;4.56;100.00;96412.41;5078271;28;19954;-74
2023/05/18 04:58:58;;;;;;;;;;;;;;;4.72;100.00;96417.94;5079120;28;19932;-74
2023/05/18 05:01:24;;;;;;;;;;;;;;;4.80;100.00;96417.72;5082660;28;20041;-74
2023/05/18 05:03:50;;;;;;;;;;;;;;;4.80;100.00;96417.72;5087920;28;19924;-74
2023/05/18 05:06:17;;;;;;;;;;;;;;;4.90;100.00;96420.84;5077993;28;19928;-74
2023/05/18 05:08:43;;;;;;;;;;;;;;;4.97;100.00;96409.47;5076680;28;20410;-73
2023/05/18 05:11:10;;;;;;;;;;;;;;;5.14;100.00;96414.13;5083664;28;19924;-72
2023/05/18 05:13:37;;;;;;;;;;;;;;;5.39;100.00;96415.03;5090157;28;19982;-73
2023/05/18 05:16:03;;;;;;;;;;;;;;;5.52;100.00;96416.28;5080233;28;19974;-73
2023/05/18 05:18:30;;;;;;;;;;;;;;;5.54;100.00;96413.69;5083926;28;20295;-73
2023/05/18 05:20:58;;;;;;;;;;;;;;;5.51;100.00;96417.19;5072816;28;19932;-74
2023/05/18 05:23:24;;;;;;;;;;;;;;;5.66;100.00;96423.56;5084992;28;20398;-73
2023/05/18 05:25:50;;;;;;;;;;;;;;;5.81;100.00;96417.06;5083863;28;19933;-74
2023/05/18 05:28:18;;;;;;;;;;;;;;;5.99;100.00;96413.91;5078813;28;19924;-73
2023/05/18 05:30:44;;;;;;;;;;;;;;;5.88;100.00;96421.13;5075175;28;19993;-74
2023/05/18 05:33:10;;;;;;;;;;;;;;;6.01;100.00;96414.72;5083091;28;19932;-74
2023/05/18 05:35:37;;;;;;;;;;;;;;;6.37;100.00;96406.56;5086504;28;19969;-74
2023/05/18 05:38:03;;;;;;;;;;;;;;;6.35;100.00;96412.69;5080475;28;19936;-74
2023/05/18 05:40:29;;;;;;;;;;;;;;;6.45;100.00;96420.03;5075549;28;19931;-75
2023/05/18 05:42:55;;;;;;;;;;;;;;;6.68;100.00;96424.31;5077546;28;20329;-74
2023/05/18 05:45:23;;;;;;;;;;;;;;;6.67;100.00;96414.91;5080290;28;20336;-74
2023/05/18 05:47:50;;;;;;;;;;;;;;;6.87;100.00;96411.59;5080311;28;20019;-74
2023/05/18 05:50:16;;;;;;;;;;;;;;;6.95;100.00;96413.88;5084411;28;19932;-74
2023/05/18 05:52:42;;;;;;;;;;;;;;;7.26;100.00;96416.09;5087846;28;19932;-74
2023/05/18 05:55:09;;;;;;;;;;;;;;;7.19;100.00;96418.09;5076753;28;19928;-74
2023/05/18 05:57:35;;;;;;;;;;;;;;;7.43;100.00;96420.59;5075398;28;19924;-74
2023/05/18 06:00:03;;;;;;;;;;;;;;;7.05;100.00;96416.94;5078786;28;19929;-74
2023/05/18 06:02:32;;;;;;;;;;;;;;;7.25;100.00;96423.00;5082830;28;19924;-74
2023/05/18 06:04:59;;;;;;;;;;;;;;;7.41;100.00;96422.38;5072760;28;19947;-74
2023/05/18 06:07:25;;;;;;;;;;;;;;;7.67;100.00;96419.59;5086149;28;19950;-75
2023/05/18 06:09:51;;;;;;;;;;;;;;;7.66;100.00;96420.50;5078369;28;20329;-74
2023/05/18 06:12:18;;;;;;;;;;;;;;;7.74;100.00;96421.00;5084913;28;19977;-74
2023/05/18 06:14:44;;;;;;;;;;;;;;;7.85;100.00;96420.56;5078372;28;20565;-74
2023/05/18 06:17:10;;;;;;;;;;;;;;;8.17;100.00;96420.97;5085398;28;19951;-74
2023/05/18 06:19:38;;;;;;;;;;;;;;;8.44;100.00;96417.22;5078845;28;19985;-74
2023/05/18 06:22:04;;;;;;;;;;;;;;;8.63;100.00;96417.22;5083869;28;19925;-74
2023/05/18 06:24:30;;;;;;;;;;;;;;;8.71;100.00;96416.88;5086935;28;20275;-74
2023/05/18 06:26:57;;;;;;;;;;;;;;;8.76;100.00;96416.69;5084109;28;19924;-74
2023/05/18 06:29:23;;;;;;;;;;;;;;;8.80;100.00;96426.81;5085450;28;19974;-74
2023/05/18 06:31:49;;;;;;;;;;;;;;;8.93;100.00;96414.16;5083873;28;19932;-75
2023/05/18 06:34:16;;;;;;;;;;;;;;;9.08;100.00;96418.63;5086513;28;20343;-75
2023/05/18 06:36:43;;;;;;;;;;;;;;;9.08;100.00;96420.38;5075359;28;20405;-74
2023/05/18 06:39:09;;;;;;;;;;;;;;;9.08;100.00;96420.38;5089309;28;19924;-74
2023/05/18 06:41:36;;;;;;;;;;;;;;;9.41;100.00;96418.78;5083635;28;19931;-75
2023/05/18 06:44:02;;;;;;;;;;;;;;;9.49;100.00;96417.56;5081176;28;19970;-74
2023/05/18 06:46:28;;;;;;;;;;;;;;;9.56;100.00;96418.97;5081695;28;19932;-75
2023/05/18 06:48:55;;;;;;;;;;;;;;;9.79;100.00;96426.47;5088028;28;19924;-75
2023/05/18 06:51:21;;;;;;;;;;;;;;;9.98;100.00;96425.53;5084764;28;19966;-70
2023/05/18 06:53:49;;;;;;;;;;;;;;;9.85;100.00;96422.72;5062215;28;19928;-74
2023/05/18 06:56:17;;;;;;;;;;;;;;;10.13;100.00;96424.78;5073198;28;20007;-74
2023/05/18 06:58:43;;;;;;;;;;;;;;;10.15;100.00;96421.16;5076666;28;19957;-74
2023/05/18 07:01:10;;;;;;;;;;;;;;;10.22;100.00;96424.28;5081887;28;20386;-74
2023/05/18 07:03:37;;;;;;;;;;;;;;;10.21;100.00;96427.81;5082917;28;20312;-73
2023/05/18 07:06:04;;;;;;;;;;;;;;;10.01;100.00;96431.41;5075671;28;19937;-73
2023/05/18 07:08:30;;;;;;;;;;;;;;;10.23;100.00;96422.53;5080276;28;20377;-74
2023/05/18 07:11:01;;;;;;;;;;;;;;;10.38;100.00;96429.53;5083567;28;20390;-73
2023/05/18 07:13:27;;;;;;;;;;;;;;;10.27;100.00;96430.13;5080854;28;20423;-73
2023/05/18 07:15:53;;;;;;;;;;;;;;;10.68;100.00;96421.97;5076862;28;20344;-74
2023/05/18 07:18:19;;;;;;;;;;;;;;;11.00;100.00;96427.16;5080292;28;19978;-74
2023/05/18 07:20:46;;;;;;;;;;;;;;;11.24;100.00;96430.19;5084751;28;19928;-74
2023/05/18 07:23:12;;;;;;;;;;;;;;;11.42;100.00;96429.19;5083890;28;20385;-74
2023/05/18 07:25:39;;;;;;;;;;;;;;;11.50;97.18;96431.34;5079276;28;19936;-73
2023/05/18 07:28:06;;;;;;;;;;;;;;;11.51;89.58;96428.66;5083139;28;19924;-73
2023/05/18 07:30:32;;;;;;;;;;;;;;;11.16;91.31;96428.03;5076293;28;20286;-73
2023/05/18 07:32:59;;;;;;;;;;;;;;;11.15;89.95;96424.56;5071873;28;19929;-74
2023/05/18 07:35:26;;;;;;;;;;;;;;;11.35;95.41;96426.09;5084273;28;19925;-73
2023/05/18 07:37:52;;;;;;;;;;;;;;;11.17;91.34;96423.66;5076748;28;20019;-73
2023/05/18 07:40:19;;;;;;;;;;;;;;;11.38;94.14;96422.47;5081770;28;19967;-73
2023/05/18 07:42:45;;;;;;;;;;;;;;;11.58;93.72;96422.19;5082783;28;19931;-73
2023/05/18 07:45:13;;;;;;;;;;;;;;;11.47;90.63;96428.91;5083033;28;19928;-73
2023/05/18 07:47:39;;;;;;;;;;;;;;;11.69;93.59;96420.75;5073348;28;20584;-73
2023/05/18 07:50:06;;;;;;;;;;;;;;;11.63;89.00;96421.94;5087398;28;19924;-74
2023/05/18 07:52:32;;;;;;;;;;;;;;;11.72;88.37;96431.81;5083148;28;20339;-73
2023/05/18 07:54:58;;;;;;;;;;;;;;;12.14;91.65;96424.25;5081951;28;19932;-73
2023/05/18 07:57:25;;;;;;;;;;;;;;;11.91;88.38;96433.38;5082941;28;19931;-72
2023/05/18 07:59:51;;;;;;;;;;;;;;;12.05;87.48;96428.22;5090209;28;19932;-73
2023/05/18 08:02:19;;;;;;;;;;;;;;;11.29;88.04;96429.00;5072902;28;19924;-74
2023/05/18 08:04:45;;;;;;;;;;;;;;;12.01;92.56;96424.13;5081019;28;19983;-74
2023/05/18 08:07:12;;;;;;;;;;;;;;;12.14;94.76;96419.06;5083373;28;19928;-74
2023/05/18 08:09:38;;;;;;;;;;;;;;;12.22;90.57;96424.63;5087751;28;20032;-74
2023/05/18 08:12:05;;;;;;;;;;;;;;;12.42;89.54;96421.72;5080098;28;19924;-74
2023/05/18 08:14:31;;;;;;;;;;;;;;;12.60;91.11;96425.78;5083886;28;19928;-73
2023/05/18 08:16:57;;;;;;;;;;;;;;;12.41;93.87;96427.81;5085383;28;19924;-73
2023/05/18 08:19:25;;;;;;;;;;;;;;;12.62;89.71;96427.47;5087176;28;19930;-74
2023/05/18 08:21:51;;;;;;;;;;;;;;;12.51;89.58;96434.13;5075654;28;20350;-74
2023/05/18 08:24:18;;;;;;;;;;;;;;;13.01;94.19;96426.78;5084639;28;19928;-74
2023/05/18 08:26:44;;;;;;;;;;;;;;;13.01;87.36;96421.56;5079997;28;19928;-74
2023/05/18 08:29:10;;;;;;;;;;;;;;;12.62;84.11;96422.28;5079423;28;19924;-75
2023/05/18 08:31:37;;;;;;;;;;;;;;;12.70;89.11;96414.84;5077007;28;20375;-78
2023/05/18 08:34:03;;;;;;;;;;;;;;;13.04;86.58;96411.00;5080952;28;20344;-76
2023/05/18 08:36:32;;;;;;;;;;;;;;;13.10;86.15;96412.38;5080062;28;20416;-76
2023/05/18 08:38:58;;;;;;;;;;;;;;;13.07;86.50;96405.59;5085378;28;20441;-76
2023/05/18 08:41:28;;;;;;;;;;;;;;;13.35;97.53;96406.47;5084954;28;19928;-76
2023/05/18 08:43:59;;;;;;;;;;;;;;;13.53;88.09;96413.13;5092147;28;19924;-76
2023/05/18 08:46:28;;;;;;;;;;;;;;;13.26;84.20;96413.13;5076124;28;20016;-76
2023/05/18 08:48:54;;;;;;;;;;;;;;;13.28;90.91;96396.47;5082617;28;20030;-76
2023/05/18 08:51:21;;;;;;;;;;;;;;;13.40;85.83;96404.44;5081869;28;19924;-76
2023/05/18 08:53:51;;;;;;;;;;;;;;;13.27;89.86;96399.16;5083951;28;19924;-76
2023/05/18 08:56:18;;;;;;;;;;;;;;;13.44;88.77;96400.72;5076873;28;20298;-76
2023/05/18 08:58:47;;;;;;;;;;;;;;;13.58;79.71;96405.88;5080478;28;19943;-76
2023/05/18 09:01:14;;;;;;;;;;;;;;;13.84;79.93;96398.97;5085177;28;19931;-76
2023/05/18 09:03:41;;;;;;;;;;;;;;;13.74;82.77;96398.72;5083653;28;19947;-76
2023/05/18 09:06:09;;;;;;;;;;;;;;;13.55;81.60;96396.47;5086728;28;20390;-76
2023/05/18 09:08:35;;;;;;;;;;;;;;;13.85;88.69;96397.19;5083158;28;20427;-76
2023/05/18 09:11:03;;;;;;;;;;;;;;;13.80;81.93;96390.50;5085404;28;19931;-76
2023/05/18 09:13:30;;;;;;;;;;;;;;;14.05;84.12;96391.47;5080438;28;20321;-76
2023/05/18 09:15:56;;;;;;;;;;;;;;;13.99;83.28;96392.72;5072024;28;19924;-76
2023/05/18 09:18:22;;;;;;;;;;;;;;;14.26;82.44;96400.47;5087813;28;20386;-76
2023/05/18 09:20:48;;;;;;;;;;;;;;;14.21;81.55;96392.13;5090003;28;20279;-76
2023/05/18 09:23:15;;;;;;;;;;;;;;;14.55;84.29;96381.22;5084615;28;19928;-76
2023/05/18 09:25:43;;;;;;;;;;;;;;;13.92;72.96;96393.25;5086744;28;20031;-76
2023/05/18 09:28:11;;;;;;;;;;;;;;;14.07;71.67;96396.59;5088206;28;19928;-76
2023/05/18 09:30:41;;;;;;;;;;;;;;;14.39;75.18;96389.22;5088433;28;19977;-76
2023/05/18 09:33:15;;;;;;;;;;;;;;;14.61;74.94;96397.28;5086045;28;20022;-76
2023/05/18 09:35:42;;;;;;;;;;;;;;;14.48;83.23;96389.41;5083177;28;19930;-76
2023/05/18 09:38:08;;;;;;;;;;;;;;;14.94;82.89;96385.41;5091178;28;19951;-76
2023/05/18 09:40:34;;;;;;;;;;;;;;;14.85;77.68;96393.91;5083146;28;19979;-76
2023/05/18 09:43:06;;;;;;;;;;;;;;;14.76;78.04;96392.78;5089929;28;19928;-76
2023/05/18 09:45:34;;;;;;;;;;;;;;;14.24;76.31;96399.75;5079193;28;19977;-76
2023/05/18 09:48:00;;;;;;;;;;;;;;;13.77;73.37;96397.69;5088240;28;19943;-76
2023/05/18 09:50:26;;;;;;;;;;;;;;;14.49;82.44;96390.25;5088452;28;20566;-76
2023/05/18 09:52:52;;;;;;;;;;;;;;;13.80;75.85;96389.69;5094238;28;20271;-76
2023/05/18 09:55:19;;;;;;;;;;;;;;;14.18;75.77;96384.53;5084838;28;19932;-76
2023/05/18 09:57:46;;;;;;;;;;;;;;;14.33;69.64;96400.88;5094082;28;19969;-76
2023/05/18 10:00:14;;;;;;;;;;;;;;;14.40;72.93;96390.88;5086612;28;19932;-76
2023/05/18 10:02:45;;;;;;;;;;;;;;;14.74;78.05;96384.22;5088339;28;19927;-76
2023/05/18 10:05:21;;;;;;;;;;;;;;;13.79;68.71;96385.38;5091102;28;19924;-75
2023/05/18 10:07:47;;;;;;;;;;;;;;;14.01;71.22;96382.19;5074603;28;19950;-76
2023/05/18 10:10:16;;;;;;;;;;;;;;;14.77;73.80;96376.19;5086849;28;19935;-76
2023/05/18 10:12:43;;;;;;;;;;;;;;;14.81;79.29;96379.41;5088439;28;19936;-76
2023/05/18 10:15:10;;;;;;;;;;;;;;;14.71;73.25;96380.03;5094451;28;19974;-76
2023/05/18 10:17:37;;;;;;;;;;;;;;;14.41;74.86;96369.09;5086976;28;19933;-76
2023/05/18 10:20:09;;;;;;;;;;;;;;;14.95;74.42;96371.44;5085437;28;20019;-76
2023/05/18 10:22:36;;;;;;;;;;;;;;;15.12;73.94;96370.25;5079525;28;19924;-76
2023/05/18 10:25:03;;;;;;;;;;;;;;;14.91;72.46;96367.41;5088756;28;20389;-76
2023/05/18 10:27:30;;;;;;;;;;;;;;;15.15;69.13;96368.25;5091445;28;19924;-72
2023/05/18 10:29:57;;;;;;;;;;;;;;;15.53;80.10;96364.63;5078034;28;19947;-75
2023/05/18 10:32:24;;;;;;;;;;;;;;;15.71;69.42;96363.31;5086065;28;19928;-76
2023/05/18 10:34:52;;;;;;;;;;;;;;;15.05;64.84;96361.19;5082701;28;19931;-75
2023/05/18 10:37:22;;;;;;;;;;;;;;;15.06;68.71;96355.88;5084933;28;19924;-75
2023/05/18 10:39:50;;;;;;;;;;;;;;;14.82;72.74;96379.28;5082197;28;19959;-74
2023/05/18 10:42:17;;;;;;;;;;;;;;;15.09;72.21;96368.69;5078535;28;19925;-73
2023/05/18 10:44:44;;;;;;;;;;;;;;;14.96;66.26;96360.91;5086705;28;19931;-74
2023/05/18 10:47:11;;;;;;;;;;;;;;;15.31;68.43;96359.31;5076135;28;19928;-74
2023/05/18 10:49:37;;;;;;;;;;;;;;;15.16;65.61;96358.63;5077995;28;19931;-74
2023/05/18 10:52:04;;;;;;;;;;;;;;;14.95;63.62;96356.63;5089657;28;19928;-74
2023/05/18 10:54:32;;;;;;;;;;;;;;;15.33;64.20;96365.28;5086617;28;19924;-74
2023/05/18 10:57:01;;;;;;;;;;;;;;;15.07;63.20;96361.91;5083573;28;20006;-74
2023/05/18 10:59:27;;;;;;;;;;;;;;;15.01;62.59;96355.34;5090736;28;19928;-74
2023/05/18 11:01:54;;;;;;;;;;;;;;;14.64;63.12;96351.88;5089080;28;19981;-74
2023/05/18 11:04:25;;;;;;;;;;;;;;;14.46;63.02;96353.97;5091300;28;19924;-74
2023/05/18 11:06:55;;;;;;;;;;;;;;;14.74;65.78;96348.53;5087166;28;19932;-74
2023/05/18 11:09:22;;;;;;;;;;;;;;;15.09;62.32;96350.44;5083184;28;19997;-73
2023/05/18 11:11:54;;;;;;;;;;;;;;;15.25;68.75;96352.78;5078965;28;19928;-73
2023/05/18 11:14:28;;;;;;;;;;;;;;;15.55;65.38;96349.72;5089319;28;19970;-73
2023/05/18 11:16:54;;;;;;;;;;;;;;;15.63;60.59;96352.59;5081619;28;19924;-74
2023/05/18 11:19:24;;;;;;;;;;;;;;;15.62;69.56;96343.09;5089339;28;19924;-73
2023/05/18 11:21:51;;;;;;;;;;;;;;;15.35;63.43;96347.69;5091428;28;19924;-74
2023/05/18 11:24:18;;;;;;;;;;;;;;;15.44;66.49;96336.59;5081785;28;19924;-74
2023/05/18 11:26:46;;;;;;;;;;;;;;;15.36;62.41;96339.78;5089598;28;19928;-74
2023/05/18 11:29:20;;;;;;;;;;;;;;;15.04;65.37;96342.09;5090191;28;19973;-74
2023/05/18 11:31:47;;;;;;;;;;;;;;;15.09;62.74;96341.75;5078517;28;20348;-74
2023/05/18 11:34:32;;;;;;;;;;;;;;;14.91;68.91;96354.34;5068277;28;19924;-74
2023/05/18 11:36:59;;;;;;;;;;;;;;;14.75;68.19;96344.97;5069210;28;19935;-74
2023/05/18 11:39:26;;;;;;;;;;;;;;;14.69;65.63;96335.00;5073893;28;19924;-74
2023/05/18 11:41:58;;;;;;;;;;;;;;;14.84;65.68;96338.31;5077916;28;19928;-74
2023/05/18 11:44:27;;;;;;;;;;;;;;;15.28;68.54;96331.69;5079527;28;19928;-74
2023/05/18 11:46:54;;;;;;;;;;;;;;;15.19;63.62;96334.94;5066707;28;19928;-74
2023/05/18 11:49:22;;;;;;;;;;;;;;;15.24;64.06;96338.91;5086009;28;19939;-74
2023/05/18 11:51:55;;;;;;;;;;;;;;;15.08;62.75;96334.88;5090651;28;19928;-73
2023/05/18 11:54:22;;;;;;;;;;;;;;;15.38;66.32;96326.59;5083325;28;19932;-74
2023/05/18 11:56:50;;;;;;;;;;;;;;;15.53;66.64;96333.31;5084596;28;19924;-73
2023/05/18 11:59:16;;;;;;;;;;;;;;;15.42;62.74;96333.25;5087402;28;20379;-74
2023/05/18 12:01:44;;;;;;;;;;;;;;;15.33;61.44;96337.38;5083721;28;19928;-74
2023/05/18 12:04:10;;;;;;;;;;;;;;;15.50;62.51;96330.94;5081442;28;20011;-74
2023/05/18 12:06:37;;;;;;;;;;;;;;;15.49;67.61;96326.66;5083244;28;19977;-74
2023/05/18 12:09:04;;;;;;;;;;;;;;;15.66;59.43;96339.34;5075615;28;19928;-74
2023/05/18 12:11:31;;;;;;;;;;;;;;;15.78;63.68;96329.75;5082931;28;19924;-74
2023/05/18 12:13:58;;;;;;;;;;;;;;;15.51;60.64;96330.00;5083436;28;20007;-74
2023/05/18 12:16:25;;;;;;;;;;;;;;;15.58;66.30;96328.59;5082459;28;19924;-74
2023/05/18 12:18:52;;;;;;;;;;;;;;;15.58;60.56;96323.38;5078110;28;19925;-73
2023/05/18 12:21:21;;;;;;;;;;;;;;;15.71;68.43;96325.94;5079094;28;20406;-74
2023/05/18 12:23:47;;;;;;;;;;;;;;;15.60;61.65;96325.88;5083492;28;19928;-74
2023/05/18 12:26:14;;;;;;;;;;;;;;;15.62;59.91;96319.59;5083382;28;19981;-74
2023/05/18 12:28:40;;;;;;;;;;;;;;;15.39;62.83;96331.72;5077957;28;19925;-74
2023/05/18 12:31:07;;;;;;;;;;;;;;;15.02;62.27;96317.91;5078901;28;19982;-73
2023/05/18 12:33:33;;;;;;;;;;;;;;;15.27;67.29;96316.94;5088155;28;20390;-73
2023/05/18 12:36:01;;;;;;;;;;;;;;;15.28;60.43;96310.81;5088296;28;19993;-74
2023/05/18 12:38:27;;;;;;;;;;;;;;;15.55;62.45;96318.38;5090071;28;19928;-74
2023/05/18 12:40:55;;;;;;;;;;;;;;;15.44;62.21;96308.72;5079462;28;19970;-74
2023/05/18 12:43:25;;;;;;;;;;;;;;;15.41;61.24;96308.13;5082756;28;20019;-74
2023/05/18 12:45:51;;;;;;;;;;;;;;;15.21;53.56;96304.38;5076359;28;19931;-73